Latest Weather Observations for Wilsons Promontory

IDV60801

Issued at 11:02 pm EST Tuesday 28 July 2015 (issued every 30 minutes, with the page automatically refreshed every 10 minutes)

About weather observations | Map of weather stations | Latest weather observations for VIC | Other Formats
Station Details ID: 085096 Name: WILSONS PROMONTORY LIGHTHOUSE Lat: -39.13 Lon: 146.42 Height: 95.0 m
Data from the previous 72 hours. | See also: Recent months at Wilsons Promontory
Date/Time
EST
Temp
°C
App
Temp
°C
Dew
Point
Rel
Hum
%
Delta-T
°C
Wind Press
QNH
hPa
Press
MSL
hPa
Rain
since 9 am
mm
Dir
 
Spd
km/h
Gust
km/h
Spd
kts
Gust
kts
28/11:00pm 10.7 4.2 8.1 84 1.3 W 32 46 17 25 1031.4 - 0.0
28/10:30pm 10.5 3.7 7.7 83 1.3 W 33 44 18 24 1031.4 - 0.0
28/10:08pm 10.5 4.4 8.1 85 1.2 W 30 48 16 26 1031.4 - 0.0
28/10:00pm 10.6 4.1 8.2 85 1.2 W 32 48 17 26 1031.4 - 0.0
28/09:30pm 10.6 4.1 8.2 85 1.2 W 32 48 17 26 1031.4 - 0.0
28/09:00pm 10.6 3.9 8.2 85 1.2 W 33 50 18 27 1031.3 1031.4 0.0
28/08:33pm 10.6 3.9 8.2 85 1.2 W 33 52 18 28 1031.3 - 0.0
28/08:30pm 10.6 4.1 8.2 85 1.2 W 32 44 17 24 1031.3 - 0.0
28/08:00pm 10.6 4.0 8.4 86 1.1 W 33 50 18 27 1031.4 - 0.0
28/07:45pm 10.7 3.7 8.3 85 1.2 W 35 54 19 29 1031.6 - 0.0
28/07:30pm 10.8 3.8 8.6 86 1.1 W 35 48 19 26 1031.3 - 0.0
28/07:12pm 10.7 3.7 8.3 85 1.2 W 35 54 19 29 1031.4 - 0.0
28/07:00pm 10.7 3.3 8.3 85 1.2 W 37 50 20 27 1031.3 - 0.0
28/06:30pm 10.6 3.3 8.9 89 0.8 W 37 54 20 29 1031.0 - 0.0
28/06:05pm 10.6 2.2 8.9 89 0.8 W 43 63 23 34 1030.8 - 0.0
28/06:00pm 10.5 2.4 8.6 88 0.9 W 41 57 22 31 1030.8 1030.9 0.0
28/05:30pm 10.8 2.7 8.7 87 1.0 W 41 61 22 33 1030.5 - 0.0
28/05:01pm 10.9 3.6 8.7 86 1.1 W 37 56 20 30 1030.5 - 0.0
28/05:00pm 10.9 4.0 8.7 86 1.1 W 35 48 19 26 1030.6 - 0.0
28/04:30pm 11.1 4.2 8.7 85 1.2 W 35 56 19 30 1030.4 - 0.0
28/04:00pm 11.3 2.7 8.2 81 1.5 W 43 57 23 31 1030.2 - 0.0
28/03:32pm 11.5 3.3 8.0 79 1.7 W 41 59 22 32 1030.3 - 0.0
28/03:30pm 11.5 2.6 7.8 78 1.8 W 44 59 24 32 1030.3 - 0.0
28/03:00pm 11.4 3.5 7.9 79 1.7 W 39 56 21 30 1030.2 1030.3 0.0
28/02:53pm 11.5 4.0 8.0 79 1.7 W 37 56 20 30 1030.2 - 0.0
28/02:30pm 11.4 4.3 8.1 80 1.6 W 35 50 19 27 1030.2 - 0.0
28/02:11pm 11.4 2.6 7.9 79 1.7 W 44 63 24 34 1029.9 - 0.0
28/02:00pm 11.9 2.4 8.2 78 1.8 W 48 63 26 34 1029.9 - 0.0
28/01:51pm 11.8 3.0 8.1 78 1.8 W 44 63 24 34 1029.9 - 0.0
28/01:30pm 11.7 1.3 7.8 77 1.9 W 52 61 28 33 1029.7 - 0.0
28/01:00pm 11.9 3.7 8.0 77 1.9 W 41 56 22 30 1030.0 - 0.0
28/12:31pm 12.1 3.9 8.0 76 2.0 W 41 65 22 35 1030.3 - 0.0
28/12:30pm 12.1 3.9 8.2 77 1.9 W 41 56 22 30 1030.3 - 0.0
28/12:00pm 12.2 4.4 8.1 76 2.0 W 39 57 21 31 1030.7 1030.8 0.0
28/11:41am 12.2 4.4 8.3 77 1.9 W 39 57 21 31 1031.2 - 0.0
28/11:30am 12.1 3.9 8.4 78 1.8 W 41 54 22 29 1031.1 - 0.0
28/11:00am 11.8 4.4 8.3 79 1.7 W 37 52 20 28 1031.3 - 0.0
28/10:30am 11.7 4.7 8.4 80 1.6 W 35 54 19 29 1031.5 - 0.0
28/10:00am 11.7 4.0 8.6 81 1.5 W 39 57 21 31 1031.1 - 0.0
28/09:30am 11.7 4.4 8.9 83 1.4 W 37 57 20 31 1030.9 - 0.0
28/09:09am 11.2 3.0 8.4 83 1.4 W 41 59 22 32 1030.7 - 0.0
28/09:00am 11.2 1.7 8.2 82 1.5 W 48 61 26 33 1030.5 1030.6 1.0
28/08:30am 11.3 2.6 8.3 82 1.5 W 44 57 24 31 1030.1 - 1.0
28/08:00am 11.0 2.5 8.4 84 1.3 W 43 61 23 33 1029.8 - 1.0
28/07:34am 10.8 2.1 8.4 85 1.2 W 44 63 24 34 1029.5 - 1.0
28/07:30am 10.8 2.6 8.4 85 1.2 W 41 56 22 30 1029.4 - 1.0
28/07:00am 10.8 2.1 8.6 86 1.1 W 44 65 24 35 1029.1 - 1.0
28/06:58am 10.8 1.8 8.7 87 1.0 W 46 65 25 35 1029.1 - 1.0
28/06:30am 10.7 2.3 9.1 90 0.8 W 43 57 23 31 1029.0 - 1.0
28/06:00am 10.9 2.5 9.5 91 0.7 W 44 65 24 35 1028.4 1028.5 1.0
28/05:54am 10.9 2.1 9.5 91 0.7 W 46 65 25 35 1028.2 - 1.0
28/05:30am 10.8 2.4 9.6 92 0.6 W 44 59 24 32 1028.0 - 1.0
28/05:00am 10.9 2.5 9.8 93 0.6 W 44 61 24 33 1027.6 - 1.0
28/04:30am 10.9 3.5 10.0 94 0.5 W 39 59 21 32 1027.5 - 1.0
28/04:20am 10.9 3.6 10.1 95 0.4 W 39 57 21 31 1027.5 - 1.0
28/04:00am 10.8 2.7 10.2 96 0.3 W 43 56 23 30 1027.3 - 1.0
28/03:30am 10.7 2.4 10.2 97 0.3 W 44 63 24 34 1026.9 - 1.0
28/03:27am 10.7 2.6 10.2 97 0.3 W 43 61 23 33 1027.1 - 1.0
28/03:00am 10.3 2.1 9.8 97 0.3 W 43 54 23 29 1027.2 1027.3 1.0
28/02:32am 10.6 3.6 9.8 95 0.4 W 37 56 20 30 1027.2 - 0.8
28/02:30am 10.7 3.7 9.9 95 0.4 W 37 52 20 28 1027.3 - 0.8
28/02:00am 10.5 2.3 9.7 95 0.4 W 43 54 23 29 1026.8 - 0.8
28/01:30am 10.8 3.0 9.9 94 0.5 W 41 56 22 30 1026.4 - 0.8
28/01:00am 10.5 2.0 9.4 93 0.6 W 44 56 24 30 1026.3 - 0.4
28/12:52am 10.7 1.5 9.6 93 0.6 W 48 67 26 36 1026.2 - 0.4
28/12:30am 10.9 0.6 9.7 92 0.6 W 54 69 29 37 1025.7 - 0.4
28/12:00am 10.9 0.2 9.5 91 0.7 W 56 74 30 40 1025.5 1025.7 0.4
 
Date/Time
EST
Temp
°C
App
Temp
°C
Dew
Point
Rel
Hum
%
Delta-T
°C
Wind Press
QNH
hPa
Press
MSL
hPa
Rain
since 9 am
mm
Dir
 
Spd
km/h
Gust
km/h
Spd
kts
Gust
kts
27/11:32pm 10.8 0.1 9.4 91 0.7 W 56 78 30 42 1025.2 - 0.4
27/11:30pm 10.7 0.3 9.1 90 0.8 W 54 70 29 38 1025.3 - 0.4
27/11:00pm 11.0 1.0 9.3 89 0.9 W 52 72 28 39 1025.4 - 0.4
27/10:30pm 11.1 0.7 9.2 88 1.0 W 54 80 29 43 1025.3 - 0.4
27/10:04pm 11.1 -1.5 8.7 85 1.2 W 65 83 35 45 1025.0 - 0.4
27/10:00pm 11.1 -1.9 8.7 85 1.2 W 67 83 36 45 1025.1 - 0.4
27/09:30pm 11.1 0.8 8.3 83 1.4 W 52 74 28 40 1025.1 - 0.4
27/09:00pm 11.0 0.8 8.4 84 1.3 W 52 74 28 40 1024.8 1025.0 0.4
27/08:30pm 10.8 0.1 8.0 83 1.4 W 54 72 29 39 1025.3 - 0.4
27/08:00pm 10.7 0.8 8.1 84 1.3 W 50 70 27 38 1025.0 - 0.4
27/07:30pm 10.5 -0.6 8.1 85 1.2 W 56 74 30 40 1024.6 - 0.4
27/07:11pm 10.4 -0.9 7.8 84 1.3 W 57 78 31 42 1024.4 - 0.4
27/07:00pm 10.5 -0.8 7.9 84 1.3 W 57 72 31 39 1024.6 - 0.4
27/06:30pm 10.3 -0.4 7.9 85 1.2 W 54 74 29 40 1024.3 - 0.4
27/06:00pm 9.5 -3.9 6.9 84 1.2 W 67 87 36 47 1023.2 1023.3 0.4
27/05:30pm 10.4 -2.5 7.6 83 1.3 W 65 91 35 49 1023.2 - 0.2
27/05:01pm 10.3 -1.9 7.4 82 1.4 W 61 82 33 44 1023.1 - 0.2
27/05:00pm 10.3 -1.9 7.4 82 1.4 W 61 78 33 42 1023.3 - 0.2
27/04:00pm 10.8 -1.1 7.1 78 1.8 W 59 82 32 44 1022.8 - 0.0
27/03:30pm 10.6 -0.7 7.3 80 1.6 W 56 78 30 42 1022.7 - 0.0
27/03:00pm 10.8 0.2 7.1 78 1.8 W 52 76 28 41 1022.3 1022.4 0.0
27/02:30pm 10.5 -1.1 6.8 78 1.8 W 57 76 31 41 1021.9 - 0.0
27/02:00pm 10.8 -0.6 6.7 76 1.9 W 56 76 30 41 1021.8 - 0.0
27/01:33pm 10.7 -0.9 6.8 77 1.9 W 57 76 31 41 1022.0 - 0.0
27/01:30pm 10.7 -1.3 6.6 76 1.9 W 59 76 32 41 1021.8 - 0.0
27/01:00pm 10.9 0.7 6.8 76 1.9 W 50 74 27 40 1022.0 - 0.0
27/12:38pm 10.6 -0.5 6.4 75 2.0 W 54 72 29 39 1022.5 - 0.0
27/12:30pm 10.9 -0.7 6.6 75 2.0 W 57 72 31 39 1022.5 - 0.0
27/12:00pm 10.8 -0.2 6.6 75 2.0 W 54 74 29 40 1022.7 1022.8 0.0
27/11:39am 10.9 1.4 6.6 75 2.0 W 46 65 25 35 1022.8 - 0.0
27/11:30am 11.0 0.4 6.7 75 2.0 W 52 67 28 36 1022.9 - 0.0
27/11:06am 10.8 1.8 6.4 74 2.1 W 43 61 23 33 1022.6 - 0.0
27/11:00am 11.0 1.9 6.7 75 2.0 W 44 59 24 32 1022.7 - 0.0
27/10:30am 10.6 0.3 6.4 75 2.0 W 50 70 27 38 1022.3 - 0.0
27/10:00am 10.6 -0.1 6.6 76 1.9 W 52 74 28 40 1022.1 - 0.0
27/09:47am 10.4 0.5 6.5 77 1.8 W 48 67 26 36 1021.7 - 0.0
27/09:30am 10.2 -0.5 6.4 77 1.8 W 52 69 28 37 1021.6 - 0.0
27/09:00am 10.1 -2.4 6.1 76 1.9 W 61 83 33 45 1020.8 1020.9 9.8
27/08:30am 9.7 0.2 6.8 82 1.4 W 46 72 25 39 1021.2 - 9.8
27/08:24am 9.5 0.3 6.4 81 1.4 W 44 67 24 36 1021.1 - 9.8
27/08:23am 9.5 1.3 6.4 81 1.4 W 39 67 21 36 1021.3 - 9.8
27/08:00am 9.7 -3.2 5.9 77 1.8 WSW 63 85 34 46 1020.0 - 9.8
27/07:30am 8.8 -4.2 5.5 80 1.5 W 63 83 34 45 1019.9 - 9.8
27/07:28am 9.0 -4.3 5.7 80 1.5 WSW 65 83 35 45 1019.7 - 9.8
27/07:11am 9.3 -4.6 6.7 84 1.2 WSW 69 80 37 43 1019.2 - 9.8
27/07:02am 8.2 -1.4 6.2 87 0.9 W 46 89 25 48 1020.0 - 9.8
27/07:00am 8.1 -2.7 6.1 87 0.9 W 52 95 28 51 1019.8 - 9.8
27/06:59am 8.0 -3.2 6.0 87 0.9 W 54 95 29 51 1019.7 - 9.8
27/06:54am 8.2 -7.2 5.8 85 1.1 WSW 76 95 41 51 1018.8 - 9.6
27/06:53am 8.3 -8.4 5.9 85 1.1 WSW 83 95 45 51 1018.5 - 9.6
27/06:52am 8.4 -3.7 5.9 84 1.1 WSW 59 95 32 51 1018.5 - 9.6
27/06:30am 8.4 -2.7 6.5 88 0.9 W 54 72 29 39 1018.9 - 9.6
27/06:00am 8.6 -3.9 5.9 83 1.2 WSW 61 89 33 48 1018.6 1018.7 9.2
27/05:57am 8.4 -5.9 5.7 83 1.2 WSW 70 91 38 49 1018.5 - 9.2
27/05:45am 7.9 -8.1 4.8 81 1.4 SW 78 91 42 49 1017.6 - 9.2
27/05:42am 9.0 -2.3 5.2 77 1.7 WSW 54 89 29 48 1018.3 - 9.2
27/05:41am 9.4 -0.3 5.6 77 1.7 W 46 89 25 48 1018.5 - 9.2
27/05:30am 9.4 -5.8 4.8 73 2.1 WSW 74 102 40 55 1017.2 - 9.2
27/05:08am 8.4 -5.8 5.0 79 1.5 WSW 69 104 37 56 1017.1 - 9.2
27/05:07am 8.5 -5.9 5.1 79 1.5 WSW 70 106 38 57 1017.0 - 9.2
27/05:00am 8.4 -10.9 4.6 77 1.7 SW 95 113 51 61 1016.1 - 9.2
27/04:53am 9.3 -8.4 4.9 74 2.0 WSW 87 107 47 58 1016.4 - 9.2
27/04:30am 7.8 -5.7 5.1 83 1.2 W 65 89 35 48 1017.1 - 9.2
27/04:15am 7.9 -3.9 4.8 81 1.4 W 56 91 30 49 1017.1 - 9.0
27/04:11am 7.6 -9.4 4.6 81 1.3 WSW 83 91 45 49 1016.0 - 9.0
27/04:10am 7.4 -3.4 4.0 79 1.5 W 50 91 27 49 1016.3 - 9.0
27/04:00am 8.8 -1.4 5.2 78 1.6 W 48 70 26 38 1017.1 - 8.2
27/03:44am 8.8 -2.6 4.8 76 1.8 W 54 93 29 50 1016.5 - 8.2
27/03:43am 9.2 -1.8 5.2 76 1.8 W 52 93 28 50 1016.6 - 8.2
27/03:32am 8.9 -8.4 4.7 75 1.9 WSW 85 100 46 54 1015.5 - 8.2
27/03:30am 9.3 -3.9 4.7 73 2.1 WSW 63 106 34 57 1015.5 - 8.2
27/03:29am 9.4 -3.4 4.8 73 2.1 WSW 61 109 33 59 1015.8 - 8.2
27/03:28am 9.3 -2.7 4.7 73 2.1 WSW 57 109 31 59 1015.9 - 8.2
27/03:20am 9.1 -9.1 3.9 70 2.3 WSW 89 109 48 59 1014.6 - 8.2
27/03:00am 8.5 -3.5 4.9 78 1.6 W 57 91 31 49 1015.8 1015.9 8.2
27/02:57am 8.6 -2.8 5.0 78 1.6 W 54 91 29 49 1016.0 - 8.2
27/02:56am 8.7 -2.3 5.1 78 1.6 W 52 91 28 49 1015.9 - 8.2
27/02:49am 8.6 -6.2 5.0 78 1.6 WSW 72 106 39 57 1015.3 - 8.2
27/02:47am 8.1 -7.6 4.5 78 1.6 WSW 76 115 41 62 1015.2 - 8.2
27/02:43am 7.7 -11.8 4.3 79 1.5 WSW 96 115 52 62 1014.9 - 8.2
27/02:38am 7.6 -13.5 4.0 78 1.6 SW 104 115 56 62 1013.8 - 8.2
27/02:36am 8.2 -8.6 4.4 77 1.7 WSW 82 100 44 54 1014.7 - 8.2
27/02:30am 8.2 -3.7 4.4 77 1.7 W 56 78 30 42 1015.7 - 8.2
27/02:04am 8.3 -4.9 4.3 76 1.8 WSW 63 109 34 59 1015.2 - 8.2
27/02:00am 8.3 -9.9 4.1 75 1.8 WSW 89 109 48 59 1014.3 - 8.2
27/01:59am 8.3 -10.7 3.8 73 2.0 WSW 93 109 50 59 1014.0 - 8.2
27/01:30am 8.3 -5.8 3.9 74 1.9 W 67 117 36 63 1014.4 - 8.2
27/01:28am 8.3 -4.9 4.5 77 1.7 W 63 117 34 63 1014.6 - 8.2
27/01:21am 8.3 -9.1 4.3 76 1.8 WSW 85 109 46 59 1013.4 - 8.2
27/01:00am 8.3 -4.6 3.9 74 1.9 W 61 102 33 55 1014.5 - 8.2
27/12:57am 8.3 -8.8 3.9 74 1.9 WSW 83 102 45 55 1013.8 - 8.2
27/12:55am 8.4 -10.2 4.2 75 1.8 WSW 91 102 49 55 1013.7 - 8.2
27/12:47am 8.7 -5.9 4.1 73 2.0 WSW 70 106 38 57 1014.0 - 8.2
27/12:44am 8.5 -11.8 3.9 73 2.0 WSW 100 106 54 57 1013.2 - 8.2
27/12:30am 8.8 -5.3 3.8 71 2.2 W 67 106 36 57 1014.3 - 8.2
27/12:27am 8.8 -4.5 3.8 71 2.2 W 63 106 34 57 1014.1 - 8.2
27/12:26am 8.9 -8.5 4.1 72 2.1 WSW 85 106 46 57 1014.1 - 8.2
27/12:23am 9.0 -9.3 3.8 70 2.3 WSW 89 106 48 57 1012.9 - 8.2
27/12:20am 9.1 -4.1 4.7 74 2.0 W 63 107 34 58 1014.1 - 8.2
27/12:19am 9.0 -5.0 4.4 73 2.0 W 67 107 36 58 1013.7 - 8.2
27/12:13am 8.5 -9.4 3.6 71 2.1 WSW 87 107 47 58 1013.2 - 8.2
27/12:00am 8.8 -3.7 4.2 73 2.0 W 59 95 32 51 1014.2 1014.3 8.2
 
Date/Time
EST
Temp
°C
App
Temp
°C
Dew
Point
Rel
Hum
%
Delta-T
°C
Wind Press
QNH
hPa
Press
MSL
hPa
Rain
since 9 am
mm
Dir
 
Spd
km/h
Gust
km/h
Spd
kts
Gust
kts
26/11:30pm 9.2 -4.0 4.6 73 2.1 WSW 63 100 34 54 1013.7 - 8.2
26/11:19pm 9.2 -3.2 4.8 74 2.0 W 59 96 32 52 1013.4 - 8.2
26/11:17pm 9.4 -2.6 5.0 74 2.0 WSW 57 96 31 52 1013.4 - 8.2
26/11:15pm 9.3 -6.7 4.5 72 2.1 WSW 78 96 42 52 1013.1 - 8.2
26/11:12pm 9.0 -6.7 4.2 72 2.1 WSW 76 87 41 47 1012.8 - 8.2
26/11:00pm 8.3 -3.3 5.9 85 1.1 W 56 91 30 49 1013.8 - 8.2
26/10:59pm 8.3 -3.3 5.9 85 1.1 W 56 93 30 50 1013.5 - 8.2
26/10:54pm 7.5 -4.4 5.1 85 1.1 W 57 107 31 58 1013.5 - 8.2
26/10:48pm 7.5 -10.2 4.5 81 1.3 WSW 87 107 47 58 1012.1 - 8.0
26/10:47pm 7.4 -11.5 4.2 80 1.4 WSW 93 107 50 58 1011.7 - 8.0
26/10:46pm 7.5 -5.8 3.9 78 1.6 W 63 104 34 56 1011.9 - 8.0
26/10:30pm 8.3 -4.1 4.9 79 1.5 W 59 82 32 44 1013.2 - 8.0
26/10:14pm 7.6 -5.6 4.6 81 1.3 W 63 106 34 57 1013.0 - 8.0
26/10:12pm 7.8 -5.7 4.7 81 1.4 W 65 106 35 57 1013.0 - 8.0
26/10:09pm 7.7 -10.0 4.8 82 1.3 WSW 87 106 47 57 1011.6 - 8.0
26/10:07pm 7.8 -11.5 5.1 83 1.2 WSW 96 106 52 57 1011.5 - 8.0
26/10:00pm 7.3 -7.0 4.8 84 1.1 W 69 117 37 63 1012.1 - 7.8
26/09:59pm 7.4 -6.1 4.9 84 1.1 W 65 117 35 63 1012.3 - 7.8
26/09:53pm 8.2 -9.5 5.0 80 1.4 WSW 87 117 47 63 1011.3 - 7.4
26/09:52pm 8.6 -5.2 5.2 79 1.5 W 67 117 36 63 1011.8 - 7.4
26/09:30pm 9.0 -3.1 5.9 81 1.4 W 59 78 32 42 1012.5 - 7.4
26/09:20pm 8.0 -3.3 5.3 83 1.2 W 54 122 29 66 1012.2 - 7.4
26/09:09pm 8.4 -6.7 5.3 81 1.4 W 74 106 40 57 1010.6 - 7.4
26/09:08pm 8.5 -5.7 5.3 80 1.4 W 69 87 37 47 1010.9 - 7.4
26/09:00pm 9.3 -0.5 5.3 76 1.8 W 46 89 25 48 1012.1 1012.2 7.4
26/08:58pm 9.4 0.0 5.2 75 1.9 W 44 89 24 48 1012.3 - 7.4
26/08:30pm 9.4 -5.8 5.0 74 2.0 W 74 106 40 57 1011.0 - 7.4
26/08:11pm 9.3 -3.8 4.9 74 2.0 W 63 106 34 57 1010.8 - 7.4
26/08:10pm 9.4 -3.3 5.0 74 2.0 W 61 106 33 57 1010.7 - 7.4
26/08:00pm 9.2 -7.5 5.8 79 1.6 W 83 104 45 56 1009.9 - 7.4
26/07:30pm 8.3 -4.3 5.6 83 1.2 W 61 93 33 50 1010.6 - 7.4
26/07:00pm 8.6 -4.1 5.2 79 1.5 W 61 96 33 52 1009.8 - 6.4
26/06:35pm 7.3 -7.7 4.1 80 1.4 W 72 115 39 62 1009.7 - 6.2
26/06:30pm 7.0 -12.4 3.6 79 1.5 W 95 115 51 62 1008.5 - 6.0
26/06:00pm 9.6 -5.4 4.0 68 2.5 W 72 102 39 55 1008.5 1008.6 5.8
26/05:30pm 9.4 -5.1 4.4 71 2.2 W 70 107 38 58 1008.3 - 5.8
26/05:02pm 9.0 -4.7 4.0 71 2.2 W 65 115 35 62 1008.0 - 5.8
26/05:00pm 8.7 -8.8 3.7 71 2.2 W 85 115 46 62 1008.0 - 5.8
26/04:30pm 9.1 -6.7 3.5 68 2.4 W 76 117 41 63 1007.7 - 5.8
26/04:15pm 9.1 -9.3 3.1 66 2.6 W 89 115 48 62 1006.9 - 5.8
26/04:00pm 8.7 -5.4 3.7 71 2.2 W 67 107 36 58 1007.6 - 5.8
26/03:30pm 9.0 -6.4 4.0 71 2.2 W 74 107 40 58 1007.1 - 5.8
26/03:24pm 9.0 -7.9 3.8 70 2.3 W 82 107 44 58 1006.9 - 5.8
26/03:00pm 8.7 -3.8 4.3 74 1.9 W 59 93 32 50 1007.1 1007.1 5.8
26/02:30pm 7.5 -4.0 4.5 81 1.3 W 54 85 29 46 1006.7 - 5.8
26/02:25pm 7.9 -1.7 4.5 79 1.5 WNW 44 96 24 52 1007.2 - 5.6
26/02:15pm 7.7 -6.6 4.5 80 1.4 W 69 93 37 50 1006.3 - 5.4
26/02:00pm 7.7 -1.8 4.7 81 1.3 W 44 91 24 49 1007.4 - 5.4
26/01:51pm 7.5 -2.5 4.3 80 1.4 W 46 89 25 48 1007.0 - 5.4
26/01:39pm 7.3 -7.3 3.9 79 1.5 W 70 89 38 48 1006.4 - 5.4
26/01:30pm 7.3 -3.2 3.7 78 1.5 W 48 93 26 50 1006.7 - 5.4
26/01:00pm 7.0 -4.6 4.0 81 1.3 W 54 96 29 52 1006.8 - 5.0
26/12:59pm 7.0 -4.6 4.0 81 1.3 W 54 96 29 52 1006.6 - 5.0
26/12:30pm 7.2 -3.1 4.5 83 1.2 W 48 78 26 42 1006.9 - 4.8
26/12:00pm 7.1 -2.0 3.9 80 1.4 W 41 78 22 42 1007.3 1007.3 4.8
26/11:43am 7.5 0.0 4.6 82 1.3 W 33 87 18 47 1007.3 - 4.8
26/11:41am 7.5 -0.7 4.6 82 1.3 W 37 87 20 47 1007.2 - 4.8
26/11:30am 7.5 -4.8 5.0 84 1.1 W 59 89 32 48 1006.9 - 4.8
26/11:28am 7.5 -6.3 5.1 85 1.1 WNW 67 89 36 48 1006.5 - 4.8
26/11:00am 6.7 -2.2 4.9 88 0.8 WNW 41 76 22 41 1007.3 - 4.8
26/10:49am 6.3 -1.2 4.5 88 0.8 W 33 85 18 46 1007.4 - 4.8
26/10:30am 7.2 -4.5 5.5 89 0.8 W 56 87 30 47 1006.6 - 4.0
26/10:00am 5.0 -11.3 2.9 86 0.9 W 78 115 42 62 1006.4 - 2.4
26/09:57am 6.5 -8.4 4.3 86 1.0 W 72 115 39 62 1005.0 - 1.8
26/09:54am 7.2 -2.6 5.3 88 0.8 WNW 46 78 25 42 1006.3 - 1.8
26/09:30am 6.9 -4.8 3.3 78 1.5 W 54 91 29 49 1005.7 - 0.0
26/09:00am 8.4 -1.6 4.4 76 1.8 W 46 76 25 41 1005.8 1005.8 7.8
26/08:30am 8.5 -0.5 4.7 77 1.7 W 41 72 22 39 1006.0 - 7.8
26/08:00am 8.5 -1.5 4.5 76 1.8 W 46 78 25 42 1005.0 - 7.8
26/07:30am 8.3 -0.5 5.4 82 1.3 W 41 72 22 39 1005.5 - 7.8
26/07:00am 7.5 -1.8 6.0 90 0.7 W 44 78 24 42 1004.8 - 7.8
26/06:30am 7.2 -3.5 4.7 84 1.1 W 50 83 27 45 1004.6 - 6.2
26/06:18am 7.5 -4.6 4.1 79 1.5 W 57 109 31 59 1003.9 - 5.8
26/06:17am 8.0 -2.3 4.6 79 1.5 W 48 85 26 46 1004.4 - 5.6
26/06:03am 8.5 -6.3 4.9 78 1.6 W 72 102 39 55 1003.3 - 5.6
26/06:02am 8.9 0.0 5.3 78 1.6 W 41 89 22 48 1003.8 - 5.6
26/06:00am 9.0 0.2 5.6 79 1.6 W 41 63 22 34 1004.5 1004.6 5.6
26/05:30am 9.1 -2.6 5.5 78 1.6 W 56 83 30 45 1003.6 - 5.6
26/05:01am 9.1 -1.8 5.5 78 1.6 W 52 82 28 44 1003.9 - 5.4
26/05:00am 9.1 -1.4 5.5 78 1.6 W 50 82 27 44 1003.8 - 5.4
26/04:59am 9.2 -1.3 5.8 79 1.6 W 50 82 27 44 1004.0 - 5.4
26/04:35am 9.4 -4.7 6.7 83 1.3 W 70 96 38 52 1003.2 - 5.4
26/04:30am 9.3 0.4 6.9 85 1.1 W 43 89 23 48 1004.0 - 5.4
26/04:19am 9.4 0.7 7.5 88 0.9 W 43 89 23 48 1004.2 - 5.2
26/04:18am 9.5 0.6 7.6 88 0.9 W 44 89 24 48 1004.0 - 5.2
26/04:12am 9.3 -4.4 7.4 88 0.9 W 69 89 37 48 1003.0 - 5.0
26/04:00am 9.2 -0.5 7.5 89 0.8 W 48 70 26 38 1004.1 - 5.0
26/03:30am 8.5 -1.3 7.1 91 0.7 W 48 95 26 51 1003.9 - 4.2
26/03:04am 8.2 -6.7 6.2 87 0.9 W 74 102 40 55 1002.8 - 2.6
26/03:03am 8.4 -1.9 6.4 87 0.9 W 50 102 27 55 1003.3 - 2.4
26/03:00am 9.2 1.5 7.2 87 1.0 WSW 37 72 20 39 1003.4 1003.5 1.8
26/02:59am 9.6 2.8 7.5 87 1.0 WSW 33 67 18 36 1004.1 - 1.8
26/02:30am 9.6 6.1 7.4 86 1.0 N 15 59 8 32 1004.6 - 1.8
26/02:26am 9.7 3.8 7.5 86 1.1 WNW 28 59 15 32 1004.2 - 1.8
26/02:06am 9.5 6.0 7.4 87 1.0 E 15 61 8 33 1004.5 - 1.6
26/02:00am 9.5 0.7 7.4 87 1.0 WNW 43 89 23 48 1004.9 - 1.6
26/01:30am 9.3 1.5 6.6 83 1.3 W 37 72 20 39 1004.6 - 1.4
26/01:00am 10.8 1.8 6.2 73 2.2 W 43 67 23 36 1004.3 - 0.4
26/12:59am 11.2 2.6 6.3 72 2.3 W 41 67 22 36 1004.3 - 0.4
26/12:30am 12.8 5.6 5.7 62 3.3 N 33 65 18 35 1003.5 - 0.0
26/12:00am 13.2 4.3 4.9 57 3.9 N 41 76 22 41 1003.3 1003.4 0.0
 
Date/Time
EST
Temp
°C
App
Temp
°C
Dew
Point
Rel
Hum
%
Delta-T
°C
Wind Press
QNH
hPa
Press
MSL
hPa
Rain
since 9 am
mm
Dir
 
Spd
km/h
Gust
km/h
Spd
kts
Gust
kts
25/11:30pm 13.3 3.9 4.5 55 4.1 NNW 43 85 23 46 1003.8 - 0.0

Other Formats:

Comma delimited format used in spreadsheet applications
http://www.bom.gov.au/fwo/IDV60801/IDV60801.94893.axf

JavaScript Object Notation format (JSON) in row-major order
http://www.bom.gov.au/fwo/IDV60801/IDV60801.94893.json